Gaiman, Argentina
Current Conditions -  °F | °C
As of 7:00 PM on Friday 19 Dec 2014 (Local Time) from SAVC Reporting Station
Scattered Clouds Scattered Clouds  
Wind Chill: 59°   Ceiling: Unl
Heat Index: 59°   Visibility: 6mi
Dew Point: 23°   Wind: 20mph
Humidity: 25%   Direction: 250°WSW
Pressure: 29.35"   Gusts: 35mph
Location:  43.28°S, 65.48°W
Report Text: SAVC 192200Z 25017G30KT 180V290 9999SCT030 15/M05 Q0994
Loading
Personal Weather Stations






























Interactive Weather Map New forecast layout! Learn more

10-Day Weather Forecast

Advertisements
Track Severe Weather on mobile